sensor_id;sensor_type;location;lat;lon;timestamp;P1;durP1;ratioP1;P2;durP2;ratioP2
71777;SDS011;59609;52.430;4.668;2022-09-09T00:04:35;6.95;;;3.63;;
71777;SDS011;59609;52.430;4.668;2022-09-09T00:15:16;5.78;;;3.50;;
71777;SDS011;59609;52.430;4.668;2022-09-09T00:17:51;9.88;;;3.70;;
71777;SDS011;59609;52.430;4.668;2022-09-09T00:20:32;6.05;;;3.90;;
71777;SDS011;59609;52.430;4.668;2022-09-09T00:23:16;6.90;;;4.00;;
71777;SDS011;59609;52.430;4.668;2022-09-09T00:25:51;6.03;;;4.00;;
71777;SDS011;59609;52.430;4.668;2022-09-09T00:28:46;6.97;;;4.68;;
71777;SDS011;59609;52.430;4.668;2022-09-09T00:31:25;7.97;;;3.83;;
71777;SDS011;59609;52.430;4.668;2022-09-09T00:33:53;6.28;;;3.67;;
71777;SDS011;59609;52.430;4.668;2022-09-09T00:36:23;7.63;;;3.80;;
71777;SDS011;59609;52.430;4.668;2022-09-09T00:38:57;7.25;;;3.95;;
71777;SDS011;59609;52.430;4.668;2022-09-09T00:47:38;6.85;;;4.25;;
71777;SDS011;59609;52.430;4.668;2022-09-09T00:52:45;8.93;;;4.70;;
71777;SDS011;59609;52.430;4.668;2022-09-09T00:55:16;7.70;;;4.65;;
71777;SDS011;59609;52.430;4.668;2022-09-09T00:57:52;7.75;;;4.93;;
71777;SDS011;59609;52.430;4.668;2022-09-09T01:11:01;10.80;;;5.65;;
71777;SDS011;59609;52.430;4.668;2022-09-09T01:13:34;11.80;;;6.22;;
71777;SDS011;59609;52.430;4.668;2022-09-09T01:16:01;15.48;;;6.50;;
71777;SDS011;59609;52.430;4.668;2022-09-09T01:18:31;11.48;;;5.70;;
71777;SDS011;59609;52.430;4.668;2022-09-09T01:26:48;12.90;;;6.25;;
71777;SDS011;59609;52.430;4.668;2022-09-09T01:29:17;12.57;;;7.22;;
71777;SDS011;59609;52.430;4.668;2022-09-09T01:32:02;18.23;;;6.93;;
71777;SDS011;59609;52.430;4.668;2022-09-09T01:35:01;16.70;;;7.80;;
71777;SDS011;59609;52.430;4.668;2022-09-09T01:37:28;14.15;;;7.60;;
71777;SDS011;59609;52.430;4.668;2022-09-09T01:39:53;11.57;;;7.32;;
71777;SDS011;59609;52.430;4.668;2022-09-09T01:42:18;13.18;;;7.97;;
71777;SDS011;59609;52.430;4.668;2022-09-09T01:44:44;15.38;;;8.30;;
71777;SDS011;59609;52.430;4.668;2022-09-09T01:47:09;12.32;;;7.40;;
71777;SDS011;59609;52.430;4.668;2022-09-09T01:49:35;15.57;;;8.18;;
71777;SDS011;59609;52.430;4.668;2022-09-09T01:52:00;17.02;;;8.35;;
71777;SDS011;59609;52.430;4.668;2022-09-09T01:54:27;17.02;;;8.68;;
71777;SDS011;59609;52.430;4.668;2022-09-09T02:00:11;15.57;;;9.23;;
71777;SDS011;59609;52.430;4.668;2022-09-09T02:08:06;18.88;;;9.93;;
71777;SDS011;59609;52.430;4.668;2022-09-09T02:10:37;20.35;;;9.75;;
71777;SDS011;59609;52.430;4.668;2022-09-09T02:13:11;19.70;;;10.43;;
71777;SDS011;59609;52.430;4.668;2022-09-09T02:15:43;19.58;;;10.70;;
71777;SDS011;59609;52.430;4.668;2022-09-09T02:18:26;19.70;;;9.52;;
71777;SDS011;59609;52.430;4.668;2022-09-09T02:20:55;19.48;;;10.60;;
71777;SDS011;59609;52.430;4.668;2022-09-09T02:23:23;16.23;;;10.10;;
71777;SDS011;59609;52.430;4.668;2022-09-09T02:25:49;19.27;;;9.93;;
71777;SDS011;59609;52.430;4.668;2022-09-09T02:28:17;22.52;;;10.48;;
71777;SDS011;59609;52.430;4.668;2022-09-09T02:30:46;19.65;;;10.40;;
71777;SDS011;59609;52.430;4.668;2022-09-09T02:33:21;18.17;;;9.70;;
71777;SDS011;59609;52.430;4.668;2022-09-09T02:35:54;17.17;;;10.18;;
71777;SDS011;59609;52.430;4.668;2022-09-09T02:38:26;18.30;;;10.88;;
71777;SDS011;59609;52.430;4.668;2022-09-09T02:40:57;22.60;;;11.40;;
71777;SDS011;59609;52.430;4.668;2022-09-09T02:43:23;19.42;;;11.45;;
71777;SDS011;59609;52.430;4.668;2022-09-09T02:45:56;22.65;;;11.52;;
71777;SDS011;59609;52.430;4.668;2022-09-09T02:51:37;22.60;;;11.73;;
71777;SDS011;59609;52.430;4.668;2022-09-09T02:54:18;23.52;;;11.65;;
71777;SDS011;59609;52.430;4.668;2022-09-09T02:57:10;27.38;;;12.85;;
71777;SDS011;59609;52.430;4.668;2022-09-09T02:59:47;25.90;;;13.55;;
71777;SDS011;59609;52.430;4.668;2022-09-09T03:02:14;25.05;;;14.23;;
71777;SDS011;59609;52.430;4.668;2022-09-09T03:04:40;24.00;;;13.43;;
71777;SDS011;59609;52.430;4.668;2022-09-09T03:07:09;26.45;;;13.77;;
71777;SDS011;59609;52.430;4.668;2022-09-09T03:09:35;24.08;;;14.40;;
71777;SDS011;59609;52.430;4.668;2022-09-09T03:12:00;23.23;;;14.00;;
71777;SDS011;59609;52.430;4.668;2022-09-09T03:14:25;26.50;;;14.07;;
71777;SDS011;59609;52.430;4.668;2022-09-09T03:16:51;24.83;;;13.90;;
71777;SDS011;59609;52.430;4.668;2022-09-09T03:19:17;22.38;;;14.82;;
71777;SDS011;59609;52.430;4.668;2022-09-09T03:21:43;23.15;;;13.00;;
71777;SDS011;59609;52.430;4.668;2022-09-09T03:24:10;20.73;;;12.40;;
71777;SDS011;59609;52.430;4.668;2022-09-09T03:26:35;18.45;;;12.43;;
71777;SDS011;59609;52.430;4.668;2022-09-09T03:29:02;22.75;;;11.77;;
71777;SDS011;59609;52.430;4.668;2022-09-09T03:31:28;22.65;;;12.13;;
71777;SDS011;59609;52.430;4.668;2022-09-09T03:33:55;19.02;;;11.57;;
71777;SDS011;59609;52.430;4.668;2022-09-09T03:36:23;17.88;;;10.70;;
71777;SDS011;59609;52.430;4.668;2022-09-09T03:38:48;16.48;;;10.75;;
71777;SDS011;59609;52.430;4.668;2022-09-09T03:41:14;18.25;;;10.40;;
71777;SDS011;59609;52.430;4.668;2022-09-09T03:43:39;18.80;;;9.98;;
71777;SDS011;59609;52.430;4.668;2022-09-09T03:46:05;16.75;;;9.48;;
71777;SDS011;59609;52.430;4.668;2022-09-09T03:48:30;14.75;;;9.32;;
71777;SDS011;59609;52.430;4.668;2022-09-09T03:50:56;15.50;;;9.70;;
71777;SDS011;59609;52.430;4.668;2022-09-09T03:53:23;17.70;;;9.43;;
71777;SDS011;59609;52.430;4.668;2022-09-09T03:55:50;14.38;;;9.23;;
71777;SDS011;59609;52.430;4.668;2022-09-09T03:58:19;15.90;;;9.23;;
71777;SDS011;59609;52.430;4.668;2022-09-09T04:00:53;14.68;;;9.52;;
71777;SDS011;59609;52.430;4.668;2022-09-09T04:03:20;16.25;;;9.80;;
71777;SDS011;59609;52.430;4.668;2022-09-09T04:05:48;24.52;;;11.07;;
71777;SDS011;59609;52.430;4.668;2022-09-09T04:10:39;17.25;;;8.88;;
71777;SDS011;59609;52.430;4.668;2022-09-09T04:13:04;16.38;;;9.57;;
71777;SDS011;59609;52.430;4.668;2022-09-09T04:15:30;18.45;;;9.60;;
71777;SDS011;59609;52.430;4.668;2022-09-09T04:17:56;18.65;;;9.38;;
71777;SDS011;59609;52.430;4.668;2022-09-09T04:20:22;15.18;;;8.95;;
71777;SDS011;59609;52.430;4.668;2022-09-09T04:22:47;16.20;;;9.13;;
71777;SDS011;59609;52.430;4.668;2022-09-09T04:25:13;16.00;;;9.40;;
71777;SDS011;59609;52.430;4.668;2022-09-09T04:27:39;17.58;;;9.63;;
71777;SDS011;59609;52.430;4.668;2022-09-09T04:30:05;17.95;;;9.80;;
71777;SDS011;59609;52.430;4.668;2022-09-09T04:32:35;12.38;;;8.00;;
71777;SDS011;59609;52.430;4.668;2022-09-09T04:35:01;17.90;;;9.27;;
71777;SDS011;59609;52.430;4.668;2022-09-09T04:37:27;14.75;;;8.52;;
71777;SDS011;59609;52.430;4.668;2022-09-09T04:39:53;16.10;;;8.65;;
71777;SDS011;59609;52.430;4.668;2022-09-09T04:42:18;23.55;;;10.32;;
71777;SDS011;59609;52.430;4.668;2022-09-09T04:44:44;16.15;;;9.23;;
71777;SDS011;59609;52.430;4.668;2022-09-09T04:47:10;15.32;;;9.13;;
71777;SDS011;59609;52.430;4.668;2022-09-09T04:49:35;19.25;;;10.48;;
71777;SDS011;59609;52.430;4.668;2022-09-09T04:52:02;19.02;;;9.23;;
71777;SDS011;59609;52.430;4.668;2022-09-09T04:54:28;15.60;;;8.15;;
71777;SDS011;59609;52.430;4.668;2022-09-09T04:56:53;12.98;;;8.15;;
71777;SDS011;59609;52.430;4.668;2022-09-09T04:59:19;16.23;;;8.20;;
71777;SDS011;59609;52.430;4.668;2022-09-09T05:01:45;17.45;;;8.30;;
71777;SDS011;59609;52.430;4.668;2022-09-09T05:04:10;13.98;;;7.20;;
71777;SDS011;59609;52.430;4.668;2022-09-09T05:06:36;13.10;;;7.47;;
71777;SDS011;59609;52.430;4.668;2022-09-09T05:09:02;11.15;;;7.28;;
71777;SDS011;59609;52.430;4.668;2022-09-09T05:11:29;13.48;;;7.65;;
71777;SDS011;59609;52.430;4.668;2022-09-09T05:13:57;12.15;;;6.93;;
71777;SDS011;59609;52.430;4.668;2022-09-09T05:16:22;14.20;;;7.13;;
71777;SDS011;59609;52.430;4.668;2022-09-09T05:18:48;10.98;;;6.57;;
71777;SDS011;59609;52.430;4.668;2022-09-09T05:21:17;12.52;;;6.03;;
71777;SDS011;59609;52.430;4.668;2022-09-09T05:23:44;11.88;;;6.05;;
71777;SDS011;59609;52.430;4.668;2022-09-09T05:26:15;8.95;;;5.82;;
71777;SDS011;59609;52.430;4.668;2022-09-09T05:28:42;8.15;;;5.63;;
71777;SDS011;59609;52.430;4.668;2022-09-09T05:31:08;11.00;;;5.93;;
71777;SDS011;59609;52.430;4.668;2022-09-09T05:33:36;9.63;;;5.85;;
71777;SDS011;59609;52.430;4.668;2022-09-09T05:36:05;9.77;;;5.50;;
71777;SDS011;59609;52.430;4.668;2022-09-09T05:38:33;10.05;;;5.43;;
71777;SDS011;59609;52.430;4.668;2022-09-09T05:40:59;14.60;;;5.50;;
71777;SDS011;59609;52.430;4.668;2022-09-09T05:43:27;9.15;;;5.00;;
71777;SDS011;59609;52.430;4.668;2022-09-09T05:46:03;8.23;;;4.82;;
71777;SDS011;59609;52.430;4.668;2022-09-09T05:48:31;9.82;;;4.90;;
71777;SDS011;59609;52.430;4.668;2022-09-09T05:50:58;11.43;;;5.10;;
71777;SDS011;59609;52.430;4.668;2022-09-09T05:53:24;8.45;;;4.60;;
71777;SDS011;59609;52.430;4.668;2022-09-09T05:55:57;10.38;;;4.22;;
71777;SDS011;59609;52.430;4.668;2022-09-09T05:58:28;11.27;;;4.30;;
71777;SDS011;59609;52.430;4.668;2022-09-09T06:01:00;11.75;;;4.05;;
71777;SDS011;59609;52.430;4.668;2022-09-09T06:06:02;7.03;;;3.50;;
71777;SDS011;59609;52.430;4.668;2022-09-09T06:08:36;9.07;;;3.75;;
71777;SDS011;59609;52.430;4.668;2022-09-09T06:11:08;8.55;;;4.05;;
71777;SDS011;59609;52.430;4.668;2022-09-09T06:13:38;8.98;;;3.97;;
71777;SDS011;59609;52.430;4.668;2022-09-09T06:16:08;6.75;;;3.58;;
71777;SDS011;59609;52.430;4.668;2022-09-09T06:18:36;5.70;;;3.45;;
71777;SDS011;59609;52.430;4.668;2022-09-09T06:21:03;7.15;;;3.88;;
71777;SDS011;59609;52.430;4.668;2022-09-09T06:23:31;8.75;;;3.72;;
71777;SDS011;59609;52.430;4.668;2022-09-09T06:26:05;9.55;;;3.83;;
71777;SDS011;59609;52.430;4.668;2022-09-09T06:28:31;6.07;;;3.28;;
71777;SDS011;59609;52.430;4.668;2022-09-09T06:31:00;9.02;;;3.20;;
71777;SDS011;59609;52.430;4.668;2022-09-09T06:33:27;7.13;;;3.30;;
71777;SDS011;59609;52.430;4.668;2022-09-09T06:35:56;4.75;;;2.53;;
71777;SDS011;59609;52.430;4.668;2022-09-09T06:38:22;8.80;;;3.20;;
71777;SDS011;59609;52.430;4.668;2022-09-09T06:40:53;7.82;;;3.10;;
71777;SDS011;59609;52.430;4.668;2022-09-09T06:43:20;8.93;;;3.03;;
71777;SDS011;59609;52.430;4.668;2022-09-09T06:45:59;7.03;;;3.45;;
71777;SDS011;59609;52.430;4.668;2022-09-09T06:48:27;5.25;;;2.67;;
71777;SDS011;59609;52.430;4.668;2022-09-09T06:51:03;4.35;;;2.45;;
71777;SDS011;59609;52.430;4.668;2022-09-09T06:53:30;7.10;;;3.25;;
71777;SDS011;59609;52.430;4.668;2022-09-09T06:55:58;9.07;;;3.65;;
71777;SDS011;59609;52.430;4.668;2022-09-09T06:58:24;6.65;;;3.30;;
71777;SDS011;59609;52.430;4.668;2022-09-09T07:00:49;5.32;;;3.33;;
71777;SDS011;59609;52.430;4.668;2022-09-09T07:03:14;7.32;;;3.35;;
71777;SDS011;59609;52.430;4.668;2022-09-09T07:05:40;9.63;;;3.13;;
71777;SDS011;59609;52.430;4.668;2022-09-09T07:08:05;14.05;;;3.90;;
71777;SDS011;59609;52.430;4.668;2022-09-09T07:10:31;12.65;;;3.80;;
71777;SDS011;59609;52.430;4.668;2022-09-09T07:12:56;11.00;;;3.50;;
71777;SDS011;59609;52.430;4.668;2022-09-09T07:15:22;7.50;;;3.33;;
71777;SDS011;59609;52.430;4.668;2022-09-09T07:17:48;9.38;;;3.65;;
71777;SDS011;59609;52.430;4.668;2022-09-09T07:20:13;8.35;;;3.70;;
71777;SDS011;59609;52.430;4.668;2022-09-09T07:22:39;7.50;;;3.00;;
71777;SDS011;59609;52.430;4.668;2022-09-09T07:25:05;6.82;;;3.17;;
71777;SDS011;59609;52.430;4.668;2022-09-09T07:27:31;11.18;;;3.50;;
71777;SDS011;59609;52.430;4.668;2022-09-09T07:29:56;7.82;;;3.63;;
71777;SDS011;59609;52.430;4.668;2022-09-09T07:32:22;9.75;;;3.70;;
71777;SDS011;59609;52.430;4.668;2022-09-09T07:34:47;7.05;;;3.80;;
71777;SDS011;59609;52.430;4.668;2022-09-09T07:37:15;8.38;;;3.70;;
71777;SDS011;59609;52.430;4.668;2022-09-09T07:39:40;12.05;;;4.38;;
71777;SDS011;59609;52.430;4.668;2022-09-09T07:42:07;6.68;;;3.47;;
71777;SDS011;59609;52.430;4.668;2022-09-09T07:44:36;11.73;;;4.22;;
71777;SDS011;59609;52.430;4.668;2022-09-09T07:47:04;7.60;;;3.83;;
71777;SDS011;59609;52.430;4.668;2022-09-09T07:49:29;8.38;;;3.78;;
71777;SDS011;59609;52.430;4.668;2022-09-09T07:51:54;10.65;;;4.43;;
71777;SDS011;59609;52.430;4.668;2022-09-09T07:54:20;7.88;;;3.75;;
71777;SDS011;59609;52.430;4.668;2022-09-09T07:56:48;11.85;;;4.50;;
71777;SDS011;59609;52.430;4.668;2022-09-09T07:59:14;8.63;;;4.40;;
71777;SDS011;59609;52.430;4.668;2022-09-09T08:01:42;8.45;;;4.20;;
71777;SDS011;59609;52.430;4.668;2022-09-09T08:04:11;6.65;;;4.07;;
71777;SDS011;59609;52.430;4.668;2022-09-09T08:06:43;11.15;;;4.30;;
71777;SDS011;59609;52.430;4.668;2022-09-09T08:09:12;6.03;;;3.30;;
71777;SDS011;59609;52.430;4.668;2022-09-09T08:11:38;7.53;;;4.18;;
71777;SDS011;59609;52.430;4.668;2022-09-09T08:14:05;6.55;;;3.75;;
71777;SDS011;59609;52.430;4.668;2022-09-09T08:16:33;8.95;;;3.90;;
71777;SDS011;59609;52.430;4.668;2022-09-09T08:19:02;11.65;;;3.63;;
71777;SDS011;59609;52.430;4.668;2022-09-09T08:21:29;10.35;;;3.42;;
71777;SDS011;59609;52.430;4.668;2022-09-09T08:23:57;7.45;;;3.88;;
71777;SDS011;59609;52.430;4.668;2022-09-09T08:26:24;9.88;;;3.90;;
71777;SDS011;59609;52.430;4.668;2022-09-09T08:28:54;4.22;;;3.33;;
71777;SDS011;59609;52.430;4.668;2022-09-09T08:34:00;6.28;;;3.70;;
71777;SDS011;59609;52.430;4.668;2022-09-09T08:38:55;7.35;;;3.80;;
71777;SDS011;59609;52.430;4.668;2022-09-09T08:55:15;8.48;;;3.78;;
71777;SDS011;59609;52.430;4.668;2022-09-09T08:57:47;7.55;;;4.53;;
71777;SDS011;59609;52.430;4.668;2022-09-09T09:00:18;8.40;;;3.90;;
71777;SDS011;59609;52.430;4.668;2022-09-09T09:02:57;8.00;;;4.20;;
71777;SDS011;59609;52.430;4.668;2022-09-09T09:14:11;14.45;;;3.92;;
71777;SDS011;59609;52.430;4.668;2022-09-09T09:21:43;8.57;;;3.75;;
71777;SDS011;59609;52.430;4.668;2022-09-09T09:27:01;9.65;;;4.47;;
71777;SDS011;59609;52.430;4.668;2022-09-09T09:29:37;9.82;;;4.03;;
71777;SDS011;59609;52.430;4.668;2022-09-09T09:32:05;7.93;;;3.10;;
71777;SDS011;59609;52.430;4.668;2022-09-09T09:34:35;7.43;;;3.40;;
71777;SDS011;59609;52.430;4.668;2022-09-09T09:37:01;7.60;;;3.80;;
71777;SDS011;59609;52.430;4.668;2022-09-09T09:41:53;10.13;;;4.05;;
71777;SDS011;59609;52.430;4.668;2022-09-09T09:46:51;11.32;;;3.80;;
71777;SDS011;59609;52.430;4.668;2022-09-09T09:49:16;12.40;;;4.18;;
71777;SDS011;59609;52.430;4.668;2022-09-09T09:51:42;8.50;;;3.17;;
71777;SDS011;59609;52.430;4.668;2022-09-09T09:56:47;10.02;;;4.32;;
71777;SDS011;59609;52.430;4.668;2022-09-09T09:59:20;9.70;;;3.85;;
71777;SDS011;59609;52.430;4.668;2022-09-09T10:01:46;6.25;;;2.78;;
71777;SDS011;59609;52.430;4.668;2022-09-09T10:04:15;8.25;;;3.45;;
71777;SDS011;59609;52.430;4.668;2022-09-09T10:06:45;8.73;;;4.00;;
71777;SDS011;59609;52.430;4.668;2022-09-09T10:09:24;7.93;;;4.20;;
71777;SDS011;59609;52.430;4.668;2022-09-09T10:17:38;8.43;;;3.42;;
71777;SDS011;59609;52.430;4.668;2022-09-09T10:23:21;8.80;;;3.45;;
71777;SDS011;59609;52.430;4.668;2022-09-09T10:37:40;11.52;;;3.60;;
71777;SDS011;59609;52.430;4.668;2022-09-09T10:54:19;6.57;;;3.00;;
71777;SDS011;59609;52.430;4.668;2022-09-09T10:57:02;4.45;;;2.70;;
71777;SDS011;59609;52.430;4.668;2022-09-09T10:59:31;6.05;;;2.10;;
71777;SDS011;59609;52.430;4.668;2022-09-09T11:02:12;7.47;;;2.15;;
71777;SDS011;59609;52.430;4.668;2022-09-09T11:04:45;4.65;;;2.55;;
71777;SDS011;59609;52.430;4.668;2022-09-09T11:07:20;4.88;;;2.55;;
71777;SDS011;59609;52.430;4.668;2022-09-09T11:09:52;8.18;;;2.70;;
71777;SDS011;59609;52.430;4.668;2022-09-09T11:12:23;10.15;;;2.80;;
71777;SDS011;59609;52.430;4.668;2022-09-09T11:14:54;5.50;;;2.28;;
71777;SDS011;59609;52.430;4.668;2022-09-09T11:17:40;7.72;;;2.55;;
71777;SDS011;59609;52.430;4.668;2022-09-09T11:20:12;8.90;;;2.75;;
71777;SDS011;59609;52.430;4.668;2022-09-09T11:22:52;5.05;;;2.65;;
71777;SDS011;59609;52.430;4.668;2022-09-09T11:28:10;7.75;;;3.10;;
71777;SDS011;59609;52.430;4.668;2022-09-09T11:30:54;8.82;;;4.28;;
71777;SDS011;59609;52.430;4.668;2022-09-09T11:44:35;10.80;;;3.92;;
71777;SDS011;59609;52.430;4.668;2022-09-09T11:47:00;10.05;;;3.45;;
71777;SDS011;59609;52.430;4.668;2022-09-09T11:49:27;9.50;;;3.15;;
71777;SDS011;59609;52.430;4.668;2022-09-09T11:51:54;3.97;;;2.72;;
71777;SDS011;59609;52.430;4.668;2022-09-09T11:54:32;6.68;;;2.88;;
71777;SDS011;59609;52.430;4.668;2022-09-09T11:57:32;5.50;;;2.22;;
71777;SDS011;59609;52.430;4.668;2022-09-09T12:00:00;5.40;;;1.88;;
71777;SDS011;59609;52.430;4.668;2022-09-09T12:02:28;4.88;;;1.92;;
71777;SDS011;59609;52.430;4.668;2022-09-09T12:07:31;2.65;;;1.90;;
71777;SDS011;59609;52.430;4.668;2022-09-09T12:12:37;3.75;;;1.85;;
71777;SDS011;59609;52.430;4.668;2022-09-09T12:17:41;2.88;;;2.00;;
71777;SDS011;59609;52.430;4.668;2022-09-09T12:20:15;4.63;;;1.98;;
71777;SDS011;59609;52.430;4.668;2022-09-09T12:22:50;3.80;;;1.95;;
71777;SDS011;59609;52.430;4.668;2022-09-09T12:31:15;5.32;;;2.20;;
71777;SDS011;59609;52.430;4.668;2022-09-09T12:33:55;2.45;;;2.15;;
71777;SDS011;59609;52.430;4.668;2022-09-09T12:36:40;2.97;;;2.10;;
71777;SDS011;59609;52.430;4.668;2022-09-09T12:42:18;5.25;;;2.10;;
71777;SDS011;59609;52.430;4.668;2022-09-09T12:44:57;5.95;;;2.58;;
71777;SDS011;59609;52.430;4.668;2022-09-09T12:50:14;6.00;;;2.22;;
71777;SDS011;59609;52.430;4.668;2022-09-09T12:55:16;5.35;;;2.72;;
71777;SDS011;59609;52.430;4.668;2022-09-09T12:57:44;6.22;;;3.95;;
71777;SDS011;59609;52.430;4.668;2022-09-09T13:00:23;6.97;;;3.60;;
71777;SDS011;59609;52.430;4.668;2022-09-09T13:02:53;7.28;;;3.95;;
71777;SDS011;59609;52.430;4.668;2022-09-09T13:05:22;7.13;;;3.65;;
71777;SDS011;59609;52.430;4.668;2022-09-09T13:07:49;7.35;;;3.35;;
71777;SDS011;59609;52.430;4.668;2022-09-09T13:10:19;5.75;;;3.20;;
71777;SDS011;59609;52.430;4.668;2022-09-09T13:12:49;5.13;;;2.95;;
71777;SDS011;59609;52.430;4.668;2022-09-09T13:15:19;7.35;;;3.13;;
71777;SDS011;59609;52.430;4.668;2022-09-09T13:18:01;4.82;;;2.83;;
71777;SDS011;59609;52.430;4.668;2022-09-09T13:20:31;2.95;;;2.45;;
71777;SDS011;59609;52.430;4.668;2022-09-09T13:22:57;4.75;;;2.63;;
71777;SDS011;59609;52.430;4.668;2022-09-09T13:25:24;3.72;;;3.03;;
71777;SDS011;59609;52.430;4.668;2022-09-09T13:30:39;4.40;;;3.00;;
71777;SDS011;59609;52.430;4.668;2022-09-09T13:41:20;4.13;;;3.55;;
71777;SDS011;59609;52.430;4.668;2022-09-09T13:43:48;6.63;;;3.30;;
71777;SDS011;59609;52.430;4.668;2022-09-09T13:51:43;6.43;;;3.28;;
71777;SDS011;59609;52.430;4.668;2022-09-09T13:54:12;3.22;;;2.65;;
71777;SDS011;59609;52.430;4.668;2022-09-09T13:56:39;5.13;;;2.78;;
71777;SDS011;59609;52.430;4.668;2022-09-09T13:59:08;4.28;;;2.70;;
71777;SDS011;59609;52.430;4.668;2022-09-09T14:01:36;3.80;;;2.22;;
71777;SDS011;59609;52.430;4.668;2022-09-09T14:04:02;3.10;;;2.80;;
71777;SDS011;59609;52.430;4.668;2022-09-09T14:06:28;3.97;;;2.70;;
71777;SDS011;59609;52.430;4.668;2022-09-09T14:08:54;3.70;;;2.90;;
71777;SDS011;59609;52.430;4.668;2022-09-09T14:11:20;4.65;;;3.00;;
71777;SDS011;59609;52.430;4.668;2022-09-09T14:13:46;4.50;;;2.92;;
71777;SDS011;59609;52.430;4.668;2022-09-09T14:16:14;3.33;;;3.03;;
71777;SDS011;59609;52.430;4.668;2022-09-09T14:18:39;6.88;;;3.65;;
71777;SDS011;59609;52.430;4.668;2022-09-09T14:21:05;6.75;;;3.33;;
71777;SDS011;59609;52.430;4.668;2022-09-09T14:23:31;8.02;;;3.78;;
71777;SDS011;59609;52.430;4.668;2022-09-09T14:25:57;5.47;;;3.75;;
71777;SDS011;59609;52.430;4.668;2022-09-09T14:28:22;5.20;;;3.47;;
71777;SDS011;59609;52.430;4.668;2022-09-09T14:30:48;5.00;;;3.65;;
71777;SDS011;59609;52.430;4.668;2022-09-09T14:33:15;6.97;;;3.80;;
71777;SDS011;59609;52.430;4.668;2022-09-09T14:35:41;7.20;;;3.90;;
71777;SDS011;59609;52.430;4.668;2022-09-09T14:38:07;5.75;;;3.60;;
71777;SDS011;59609;52.430;4.668;2022-09-09T14:40:34;6.07;;;3.75;;
71777;SDS011;59609;52.430;4.668;2022-09-09T14:43:00;4.53;;;3.42;;
71777;SDS011;59609;52.430;4.668;2022-09-09T14:45:27;3.95;;;3.30;;
71777;SDS011;59609;52.430;4.668;2022-09-09T14:47:53;8.73;;;3.45;;
71777;SDS011;59609;52.430;4.668;2022-09-09T14:50:19;7.72;;;3.35;;
71777;SDS011;59609;52.430;4.668;2022-09-09T14:52:45;6.30;;;3.50;;
71777;SDS011;59609;52.430;4.668;2022-09-09T14:55:11;4.57;;;3.70;;
71777;SDS011;59609;52.430;4.668;2022-09-09T14:57:36;5.50;;;3.33;;
71777;SDS011;59609;52.430;4.668;2022-09-09T15:00:04;6.97;;;3.20;;
71777;SDS011;59609;52.430;4.668;2022-09-09T15:02:30;4.75;;;2.55;;
71777;SDS011;59609;52.430;4.668;2022-09-09T15:04:56;4.25;;;2.45;;
71777;SDS011;59609;52.430;4.668;2022-09-09T15:07:24;4.38;;;2.30;;
71777;SDS011;59609;52.430;4.668;2022-09-09T15:09:52;5.63;;;2.50;;
71777;SDS011;59609;52.430;4.668;2022-09-09T15:12:18;6.05;;;2.53;;
71777;SDS011;59609;52.430;4.668;2022-09-09T15:14:44;2.53;;;2.20;;
71777;SDS011;59609;52.430;4.668;2022-09-09T15:17:09;5.50;;;2.13;;
71777;SDS011;59609;52.430;4.668;2022-09-09T15:19:35;4.90;;;2.22;;
71777;SDS011;59609;52.430;4.668;2022-09-09T15:22:01;3.50;;;1.90;;
71777;SDS011;59609;52.430;4.668;2022-09-09T15:24:27;6.47;;;2.60;;
71777;SDS011;59609;52.430;4.668;2022-09-09T15:26:52;5.40;;;2.20;;
71777;SDS011;59609;52.430;4.668;2022-09-09T15:29:18;3.45;;;1.73;;
71777;SDS011;59609;52.430;4.668;2022-09-09T15:31:44;5.18;;;1.90;;
71777;SDS011;59609;52.430;4.668;2022-09-09T15:34:09;4.05;;;2.00;;
71777;SDS011;59609;52.430;4.668;2022-09-09T15:36:38;4.10;;;2.03;;
71777;SDS011;59609;52.430;4.668;2022-09-09T15:39:06;4.85;;;1.98;;
71777;SDS011;59609;52.430;4.668;2022-09-09T15:41:34;5.95;;;2.45;;
71777;SDS011;59609;52.430;4.668;2022-09-09T15:44:00;3.45;;;1.90;;
71777;SDS011;59609;52.430;4.668;2022-09-09T15:46:32;3.92;;;1.67;;
71777;SDS011;59609;52.430;4.668;2022-09-09T15:49:03;3.70;;;1.50;;
71777;SDS011;59609;52.430;4.668;2022-09-09T15:51:28;3.85;;;1.60;;
71777;SDS011;59609;52.430;4.668;2022-09-09T15:53:55;3.58;;;1.77;;
71777;SDS011;59609;52.430;4.668;2022-09-09T15:56:21;8.13;;;1.65;;
71777;SDS011;59609;52.430;4.668;2022-09-09T15:58:47;11.35;;;2.60;;
71777;SDS011;59609;52.430;4.668;2022-09-09T16:01:13;5.53;;;1.70;;
71777;SDS011;59609;52.430;4.668;2022-09-09T16:03:39;9.02;;;1.83;;
71777;SDS011;59609;52.430;4.668;2022-09-09T16:06:11;4.88;;;1.60;;
71777;SDS011;59609;52.430;4.668;2022-09-09T16:08:39;6.28;;;2.28;;
71777;SDS011;59609;52.430;4.668;2022-09-09T16:11:10;3.15;;;1.40;;
71777;SDS011;59609;52.430;4.668;2022-09-09T16:13:39;2.40;;;1.33;;
71777;SDS011;59609;52.430;4.668;2022-09-09T16:16:06;3.72;;;1.58;;
71777;SDS011;59609;52.430;4.668;2022-09-09T16:18:50;5.38;;;1.55;;
71777;SDS011;59609;52.430;4.668;2022-09-09T16:21:24;5.40;;;1.85;;
71777;SDS011;59609;52.430;4.668;2022-09-09T16:23:54;4.10;;;1.48;;
71777;SDS011;59609;52.430;4.668;2022-09-09T16:26:19;7.18;;;1.73;;
71777;SDS011;59609;52.430;4.668;2022-09-09T16:28:45;6.90;;;1.60;;
71777;SDS011;59609;52.430;4.668;2022-09-09T16:31:13;5.03;;;1.58;;
71777;SDS011;59609;52.430;4.668;2022-09-09T16:33:41;3.75;;;1.55;;
71777;SDS011;59609;52.430;4.668;2022-09-09T16:36:11;2.42;;;1.52;;
71777;SDS011;59609;52.430;4.668;2022-09-09T16:38:39;6.90;;;1.60;;
71777;SDS011;59609;52.430;4.668;2022-09-09T16:41:05;7.78;;;1.73;;
71777;SDS011;59609;52.430;4.668;2022-09-09T16:43:32;6.07;;;1.52;;
71777;SDS011;59609;52.430;4.668;2022-09-09T16:45:58;6.57;;;2.00;;
71777;SDS011;59609;52.430;4.668;2022-09-09T16:48:25;9.93;;;1.98;;
71777;SDS011;59609;52.430;4.668;2022-09-09T16:50:52;8.20;;;2.35;;
71777;SDS011;59609;52.430;4.668;2022-09-09T16:53:17;5.85;;;2.10;;
71777;SDS011;59609;52.430;4.668;2022-09-09T16:55:43;6.65;;;2.25;;
71777;SDS011;59609;52.430;4.668;2022-09-09T16:58:10;6.30;;;2.55;;
71777;SDS011;59609;52.430;4.668;2022-09-09T17:00:36;7.30;;;2.35;;
71777;SDS011;59609;52.430;4.668;2022-09-09T17:03:01;6.70;;;2.22;;
71777;SDS011;59609;52.430;4.668;2022-09-09T17:05:27;6.65;;;2.17;;
71777;SDS011;59609;52.430;4.668;2022-09-09T17:07:53;9.15;;;2.28;;
71777;SDS011;59609;52.430;4.668;2022-09-09T17:10:21;7.20;;;2.50;;
71777;SDS011;59609;52.430;4.668;2022-09-09T17:12:46;6.00;;;2.30;;
71777;SDS011;59609;52.430;4.668;2022-09-09T17:15:12;5.20;;;1.90;;
71777;SDS011;59609;52.430;4.668;2022-09-09T17:17:37;5.40;;;2.05;;
71777;SDS011;59609;52.430;4.668;2022-09-09T17:20:02;9.05;;;2.63;;
71777;SDS011;59609;52.430;4.668;2022-09-09T17:22:28;6.32;;;2.65;;
71777;SDS011;59609;52.430;4.668;2022-09-09T17:24:53;10.10;;;2.78;;
71777;SDS011;59609;52.430;4.668;2022-09-09T17:27:20;5.85;;;2.25;;
71777;SDS011;59609;52.430;4.668;2022-09-09T17:29:45;6.35;;;2.35;;
71777;SDS011;59609;52.430;4.668;2022-09-09T17:32:11;8.18;;;2.42;;
71777;SDS011;59609;52.430;4.668;2022-09-09T17:34:38;6.68;;;2.38;;
71777;SDS011;59609;52.430;4.668;2022-09-09T17:37:03;6.75;;;2.63;;
71777;SDS011;59609;52.430;4.668;2022-09-09T17:39:30;10.55;;;2.25;;
71777;SDS011;59609;52.430;4.668;2022-09-09T17:41:56;7.60;;;2.50;;
71777;SDS011;59609;52.430;4.668;2022-09-09T17:44:22;7.80;;;2.10;;
71777;SDS011;59609;52.430;4.668;2022-09-09T17:46:47;7.63;;;2.70;;
71777;SDS011;59609;52.430;4.668;2022-09-09T17:49:14;5.55;;;2.38;;
71777;SDS011;59609;52.430;4.668;2022-09-09T17:51:42;9.30;;;2.72;;
71777;SDS011;59609;52.430;4.668;2022-09-09T17:54:09;7.57;;;3.35;;